createdAt,value
2022-09-15T00:01:14.000Z,288
2022-09-15T00:02:30.000Z,286
2022-09-15T00:03:46.000Z,283
2022-09-15T00:05:02.000Z,283
2022-09-15T00:06:18.000Z,284
2022-09-15T00:07:34.000Z,285
2022-09-15T00:08:51.000Z,285
2022-09-15T00:10:07.000Z,285
2022-09-15T00:11:23.000Z,288
2022-09-15T00:12:39.000Z,282
2022-09-15T00:13:56.000Z,285
2022-09-15T00:15:12.000Z,285
2022-09-15T00:16:28.000Z,297
2022-09-15T00:17:44.000Z,300
2022-09-15T00:19:01.000Z,294
2022-09-15T00:20:16.000Z,302
2022-09-15T00:21:32.000Z,301
2022-09-15T00:22:48.000Z,292
2022-09-15T00:24:04.000Z,296
2022-09-15T00:25:21.000Z,296
2022-09-15T00:26:37.000Z,298
2022-09-15T00:27:53.000Z,294
2022-09-15T00:29:09.000Z,291
2022-09-15T00:30:26.000Z,294
2022-09-15T00:31:42.000Z,292
2022-09-15T00:32:58.000Z,287
2022-09-15T00:34:14.000Z,292
2022-09-15T00:35:31.000Z,292
2022-09-15T00:36:46.000Z,292
2022-09-15T00:38:02.000Z,280
2022-09-15T00:39:18.000Z,285
2022-09-15T00:40:35.000Z,285
2022-09-15T00:41:51.000Z,280
2022-09-15T00:43:07.000Z,278
2022-09-15T00:44:23.000Z,279
2022-09-15T00:45:39.000Z,274
2022-09-15T00:46:56.000Z,273
2022-09-15T00:48:12.000Z,273
2022-09-15T00:49:28.000Z,265
2022-09-15T00:50:44.000Z,268
2022-09-15T00:52:01.000Z,265
2022-09-15T00:53:16.000Z,257
2022-09-15T00:54:32.000Z,260
2022-09-15T00:55:48.000Z,257
2022-09-15T00:57:05.000Z,251
2022-09-15T00:58:21.000Z,249
2022-09-15T00:59:37.000Z,247
2022-09-15T01:00:53.000Z,242
2022-09-15T01:02:10.000Z,246
2022-09-15T01:03:26.000Z,247
2022-09-15T01:04:42.000Z,246
2022-09-15T01:05:58.000Z,243
2022-09-15T01:07:14.000Z,246
2022-09-15T01:08:31.000Z,247
2022-09-15T01:09:46.000Z,243
2022-09-15T01:11:02.000Z,244
2022-09-15T01:12:18.000Z,243
2022-09-15T01:13:35.000Z,244
2022-09-15T01:14:51.000Z,240
2022-09-15T01:16:07.000Z,243
2022-09-15T01:17:23.000Z,242
2022-09-15T01:18:40.000Z,237
2022-09-15T01:19:56.000Z,242
2022-09-15T01:21:12.000Z,246
2022-09-15T01:22:28.000Z,244
2022-09-15T01:23:45.000Z,246
2022-09-15T01:25:01.000Z,247
2022-09-15T01:26:16.000Z,246
2022-09-15T01:27:32.000Z,245
2022-09-15T01:28:48.000Z,245
2022-09-15T01:30:05.000Z,242
2022-09-15T01:31:21.000Z,244
2022-09-15T01:32:37.000Z,247
2022-09-15T01:33:53.000Z,243
2022-09-15T01:35:10.000Z,246
2022-09-15T01:36:26.000Z,242
2022-09-15T01:37:42.000Z,239
2022-09-15T01:38:58.000Z,239
2022-09-15T01:40:15.000Z,240
2022-09-15T01:41:31.000Z,243
2022-09-15T01:42:46.000Z,238
2022-09-15T01:44:02.000Z,236
2022-09-15T01:45:19.000Z,239
2022-09-15T01:46:35.000Z,242
2022-09-15T01:47:51.000Z,239
2022-09-15T01:49:07.000Z,240
2022-09-15T01:50:23.000Z,238
2022-09-15T01:51:40.000Z,240
2022-09-15T01:52:56.000Z,235
2022-09-15T01:54:12.000Z,237
2022-09-15T01:55:28.000Z,240
2022-09-15T01:56:45.000Z,239
2022-09-15T01:58:01.000Z,241
2022-09-15T01:59:16.000Z,238
2022-09-15T02:00:32.000Z,258
2022-09-15T02:01:49.000Z,575
2022-09-15T02:03:05.000Z,483
2022-09-15T02:04:21.000Z,442
2022-09-15T02:05:37.000Z,407
2022-09-15T02:06:54.000Z,379
2022-09-15T02:08:10.000Z,373
2022-09-15T02:09:26.000Z,351
2022-09-15T02:10:42.000Z,336
2022-09-15T02:11:58.000Z,313
2022-09-15T02:13:15.000Z,299
2022-09-15T02:14:31.000Z,286
2022-09-15T02:15:46.000Z,275
2022-09-15T02:17:02.000Z,270
2022-09-15T02:18:19.000Z,267
2022-09-15T02:19:35.000Z,255
2022-09-15T02:20:51.000Z,251
2022-09-15T02:22:07.000Z,236
2022-09-15T02:23:24.000Z,230
2022-09-15T02:24:40.000Z,225
2022-09-15T02:25:56.000Z,220
2022-09-15T02:27:12.000Z,214
2022-09-15T02:28:28.000Z,210
2022-09-15T02:29:45.000Z,205
2022-09-15T02:31:01.000Z,202
2022-09-15T02:32:16.000Z,197
2022-09-15T02:33:32.000Z,195
2022-09-15T02:34:49.000Z,188
2022-09-15T02:36:05.000Z,187
2022-09-15T02:37:21.000Z,182
2022-09-15T02:38:37.000Z,180
2022-09-15T02:39:54.000Z,180
2022-09-15T02:41:10.000Z,176
2022-09-15T02:42:26.000Z,171
2022-09-15T02:43:42.000Z,171
2022-09-15T02:44:59.000Z,177
2022-09-15T02:46:15.000Z,180
2022-09-15T02:47:31.000Z,188
2022-09-15T02:48:46.000Z,187
2022-09-15T02:50:02.000Z,193
2022-09-15T02:51:19.000Z,185
2022-09-15T02:52:35.000Z,177
2022-09-15T02:53:51.000Z,184
2022-09-15T02:55:07.000Z,186
2022-09-15T02:56:24.000Z,186
2022-09-15T02:57:40.000Z,185
2022-09-15T02:58:56.000Z,176
2022-09-15T03:00:12.000Z,170
2022-09-15T03:01:29.000Z,220
2022-09-15T03:02:45.000Z,178
2022-09-15T03:04:01.000Z,556
2022-09-15T03:05:16.000Z,1007
2022-09-15T03:06:33.000Z,435
2022-09-15T03:07:49.000Z,369
2022-09-15T03:10:21.000Z,308
2022-09-15T03:11:37.000Z,278
2022-09-15T03:12:54.000Z,241
2022-09-15T03:14:10.000Z,216
2022-09-15T03:15:26.000Z,200
2022-09-15T03:16:42.000Z,184
2022-09-15T03:17:59.000Z,175
2022-09-15T03:19:15.000Z,166
2022-09-15T03:20:31.000Z,169
2022-09-15T03:21:46.000Z,172
2022-09-15T03:23:03.000Z,173
2022-09-15T03:24:19.000Z,171
2022-09-15T03:25:35.000Z,171
2022-09-15T03:26:51.000Z,173
2022-09-15T03:28:08.000Z,175
2022-09-15T03:29:24.000Z,173
2022-09-15T03:30:40.000Z,170
2022-09-15T03:31:56.000Z,172
2022-09-15T03:33:12.000Z,169
2022-09-15T03:34:29.000Z,167
2022-09-15T03:35:45.000Z,164
2022-09-15T03:37:01.000Z,167
2022-09-15T03:38:16.000Z,171
2022-09-15T03:39:33.000Z,172
2022-09-15T03:40:49.000Z,169
2022-09-15T03:42:05.000Z,169
2022-09-15T03:43:21.000Z,170
2022-09-15T03:44:38.000Z,170
2022-09-15T03:45:54.000Z,171
2022-09-15T03:47:10.000Z,171
2022-09-15T03:48:26.000Z,173
2022-09-15T03:49:43.000Z,173
2022-09-15T03:50:59.000Z,170
2022-09-15T03:52:15.000Z,170
2022-09-15T03:53:31.000Z,169
2022-09-15T03:54:46.000Z,167
2022-09-15T03:56:03.000Z,167
2022-09-15T03:57:19.000Z,167
2022-09-15T03:58:35.000Z,172
2022-09-15T03:59:51.000Z,170
2022-09-15T04:01:08.000Z,173
2022-09-15T04:02:24.000Z,175
2022-09-15T04:03:40.000Z,172
2022-09-15T04:04:56.000Z,174
2022-09-15T04:06:13.000Z,177
2022-09-15T04:07:29.000Z,177
2022-09-15T04:08:45.000Z,175
2022-09-15T04:10:01.000Z,173
2022-09-15T04:11:18.000Z,175
2022-09-15T04:12:33.000Z,180
2022-09-15T04:13:49.000Z,180
2022-09-15T04:15:05.000Z,180
2022-09-15T04:16:21.000Z,186
2022-09-15T04:17:38.000Z,190
2022-09-15T04:18:54.000Z,189
2022-09-15T04:20:10.000Z,188
2022-09-15T04:21:26.000Z,189
2022-09-15T04:22:43.000Z,187
2022-09-15T04:23:59.000Z,189
2022-09-15T04:25:15.000Z,190
2022-09-15T04:26:31.000Z,190
2022-09-15T04:27:48.000Z,190
2022-09-15T04:29:03.000Z,190
2022-09-15T04:30:19.000Z,189
2022-09-15T04:31:35.000Z,188
2022-09-15T04:32:52.000Z,187
2022-09-15T04:34:08.000Z,185
2022-09-15T04:35:24.000Z,183
2022-09-15T04:36:40.000Z,180
2022-09-15T04:37:56.000Z,170
2022-09-15T04:39:13.000Z,167
2022-09-15T04:40:29.000Z,164
2022-09-15T04:41:45.000Z,168
2022-09-15T04:43:01.000Z,169
2022-09-15T04:44:18.000Z,169
2022-09-15T04:45:33.000Z,170
2022-09-15T04:46:49.000Z,174
2022-09-15T04:48:05.000Z,178
2022-09-15T04:49:22.000Z,182
2022-09-15T04:50:38.000Z,147
2022-09-15T04:51:53.000Z,19
2022-09-15T04:53:09.000Z,27
2022-09-15T04:54:26.000Z,32
2022-09-15T04:55:42.000Z,36
2022-09-15T04:56:58.000Z,44
2022-09-15T04:58:14.000Z,59
2022-09-15T04:59:30.000Z,76
2022-09-15T05:00:47.000Z,92
2022-09-15T05:02:03.000Z,107
2022-09-15T05:03:19.000Z,127
2022-09-15T05:04:35.000Z,141
2022-09-15T05:05:52.000Z,156
2022-09-15T05:07:08.000Z,169
2022-09-15T05:08:23.000Z,181
2022-09-15T05:09:39.000Z,191
2022-09-15T05:10:56.000Z,203
2022-09-15T05:12:12.000Z,217
2022-09-15T05:13:28.000Z,222
2022-09-15T05:14:44.000Z,236
2022-09-15T05:16:01.000Z,256
2022-09-15T05:17:17.000Z,278
2022-09-15T05:18:33.000Z,319
2022-09-15T05:19:49.000Z,316
2022-09-15T05:21:05.000Z,353
2022-09-15T05:22:22.000Z,314
2022-09-15T05:23:38.000Z,249
2022-09-15T05:24:53.000Z,268
2022-09-15T05:26:09.000Z,327
2022-09-15T05:27:26.000Z,439
2022-09-15T05:28:42.000Z,543
2022-09-15T05:29:58.000Z,589
2022-09-15T05:31:14.000Z,596
2022-09-15T05:32:31.000Z,648
2022-09-15T05:33:47.000Z,807
2022-09-15T05:35:03.000Z,950
2022-09-15T05:36:19.000Z,966
2022-09-15T05:37:35.000Z,941
2022-09-15T05:38:52.000Z,981
2022-09-15T05:40:08.000Z,1096
2022-09-15T05:41:23.000Z,1123
2022-09-15T05:42:39.000Z,1169
2022-09-15T05:43:56.000Z,1180
2022-09-15T05:45:12.000Z,1161
2022-09-15T05:46:28.000Z,1163
2022-09-15T05:47:44.000Z,1110
2022-09-15T05:49:01.000Z,1091
2022-09-15T05:50:17.000Z,1136
2022-09-15T05:51:32.000Z,1153
2022-09-15T05:52:48.000Z,1255
2022-09-15T05:54:04.000Z,1351
2022-09-15T05:55:19.000Z,1362
2022-09-15T05:56:34.000Z,1315
2022-09-15T05:57:50.000Z,1317
2022-09-15T05:59:07.000Z,1630
2022-09-15T06:00:23.000Z,1491
2022-09-15T06:01:39.000Z,1850
2022-09-15T06:02:55.000Z,2018
2022-09-15T06:04:12.000Z,1883
2022-09-15T06:05:28.000Z,1850
2022-09-15T06:06:44.000Z,1956
2022-09-15T06:08:00.000Z,1989
2022-09-15T06:09:16.000Z,1902
2022-09-15T06:10:33.000Z,1856
2022-09-15T06:11:49.000Z,2255
2022-09-15T06:13:04.000Z,2056
2022-09-15T06:14:20.000Z,2636
2022-09-15T06:15:37.000Z,2861
2022-09-15T06:16:53.000Z,3265
2022-09-15T06:18:09.000Z,2820
2022-09-15T06:19:25.000Z,3241
2022-09-15T06:20:42.000Z,2786
2022-09-15T06:21:57.000Z,2639
2022-09-15T06:23:12.000Z,2815
2022-09-15T06:24:28.000Z,2654
2022-09-15T06:25:45.000Z,2410
2022-09-15T06:27:01.000Z,2146
2022-09-15T06:28:17.000Z,2335
2022-09-15T06:29:33.000Z,3075
2022-09-15T06:30:49.000Z,2940
2022-09-15T06:32:06.000Z,2681
2022-09-15T06:33:21.000Z,2480
2022-09-15T06:34:36.000Z,2201
2022-09-15T06:35:52.000Z,2204
2022-09-15T06:37:09.000Z,2088
2022-09-15T06:38:25.000Z,1862
2022-09-15T06:39:41.000Z,1727
2022-09-15T06:40:57.000Z,1991
2022-09-15T06:42:14.000Z,2142
2022-09-15T06:43:30.000Z,2414
2022-09-15T06:44:46.000Z,2547
2022-09-15T06:46:02.000Z,2439
2022-09-15T06:47:19.000Z,2479
2022-09-15T06:48:35.000Z,2601
2022-09-15T06:49:51.000Z,2459
2022-09-15T06:51:06.000Z,2858
2022-09-15T06:52:23.000Z,3504
2022-09-15T06:53:39.000Z,3558
2022-09-15T06:54:55.000Z,3458
2022-09-15T06:56:11.000Z,4132
2022-09-15T06:57:27.000Z,4143
2022-09-15T06:58:44.000Z,4697
2022-09-15T07:00:00.000Z,4938
2022-09-15T07:01:16.000Z,4573
2022-09-15T07:02:32.000Z,5103
2022-09-15T07:03:49.000Z,5273
2022-09-15T07:05:05.000Z,5038
2022-09-15T07:06:21.000Z,4963
2022-09-15T07:07:36.000Z,5353
2022-09-15T07:08:53.000Z,5192
2022-09-15T07:10:09.000Z,4531
2022-09-15T07:11:25.000Z,4113
2022-09-15T07:12:41.000Z,4306
2022-09-15T07:13:58.000Z,3808
2022-09-15T07:15:14.000Z,4002
2022-09-15T07:16:30.000Z,5184
2022-09-15T07:17:46.000Z,5543
2022-09-15T07:19:02.000Z,5077
2022-09-15T07:20:19.000Z,5113
2022-09-15T07:21:35.000Z,5008
2022-09-15T07:22:51.000Z,5772
2022-09-15T07:24:06.000Z,4979
2022-09-15T07:25:23.000Z,4484
2022-09-15T07:26:39.000Z,5643
2022-09-15T07:27:55.000Z,6004
2022-09-15T07:29:11.000Z,5576
2022-09-15T07:30:28.000Z,6332
2022-09-15T07:31:44.000Z,6400
2022-09-15T07:33:00.000Z,6483
2022-09-15T07:34:16.000Z,6913
2022-09-15T07:35:32.000Z,7316
2022-09-15T07:36:49.000Z,6991
2022-09-15T07:38:05.000Z,6909
2022-09-15T07:39:21.000Z,6761
2022-09-15T07:40:36.000Z,7125
2022-09-15T07:41:53.000Z,6745
2022-09-15T07:43:09.000Z,6464
2022-09-15T07:44:25.000Z,5963
2022-09-15T07:45:41.000Z,7045
2022-09-15T07:46:58.000Z,7492
2022-09-15T07:48:14.000Z,7720
2022-09-15T07:49:30.000Z,8027
2022-09-15T07:50:46.000Z,8292
2022-09-15T07:52:03.000Z,7511
2022-09-15T07:53:19.000Z,7429
2022-09-15T07:54:35.000Z,7940
2022-09-15T07:55:51.000Z,7615
2022-09-15T07:57:07.000Z,8297
2022-09-15T07:58:23.000Z,7766
2022-09-15T07:59:39.000Z,7976
2022-09-15T08:00:55.000Z,7093
2022-09-15T08:02:11.000Z,7655
2022-09-15T08:03:28.000Z,9037
2022-09-15T08:04:44.000Z,8277
2022-09-15T08:06:00.000Z,9058
2022-09-15T08:07:16.000Z,9428
2022-09-15T08:08:33.000Z,9218
2022-09-15T08:09:49.000Z,8251
2022-09-15T08:11:05.000Z,8995
2022-09-15T08:12:21.000Z,8450
2022-09-15T08:13:37.000Z,9429
2022-09-15T08:14:53.000Z,10194
2022-09-15T08:16:09.000Z,9997
2022-09-15T08:17:25.000Z,9820
2022-09-15T08:18:41.000Z,9276
2022-09-15T08:19:58.000Z,8713
2022-09-15T08:21:14.000Z,7442
2022-09-15T08:22:30.000Z,7274
2022-09-15T08:23:46.000Z,8041
2022-09-15T08:25:03.000Z,6916
2022-09-15T08:26:19.000Z,6280
2022-09-15T08:27:35.000Z,5670
2022-09-15T08:28:51.000Z,8058
2022-09-15T08:30:07.000Z,9562
2022-09-15T08:31:23.000Z,10653
2022-09-15T08:32:39.563Z,10931
2022-09-15T08:33:55.000Z,9044
2022-09-15T08:35:12.000Z,10215
2022-09-15T08:36:28.000Z,10812
2022-09-15T08:37:44.000Z,12144
2022-09-15T08:39:00.000Z,10310
2022-09-15T08:40:16.000Z,10940
2022-09-15T08:41:33.000Z,11223
2022-09-15T08:42:49.000Z,11111
2022-09-15T08:44:05.000Z,11237
2022-09-15T08:45:21.000Z,11290
2022-09-15T08:46:37.000Z,11550
2022-09-15T08:47:53.000Z,11655
2022-09-15T08:49:09.000Z,11439
2022-09-15T08:50:25.000Z,11976
2022-09-15T08:51:42.000Z,12103
2022-09-15T08:52:58.000Z,11762
2022-09-15T08:54:14.000Z,11277
2022-09-15T08:55:30.000Z,10379
2022-09-15T08:56:47.000Z,9699
2022-09-15T08:58:03.000Z,9622
2022-09-15T08:59:19.000Z,9921
2022-09-15T09:00:35.000Z,10186
2022-09-15T09:01:51.000Z,9152
2022-09-15T09:03:07.000Z,8581
2022-09-15T09:04:23.000Z,8299
2022-09-15T09:05:39.000Z,7693
2022-09-15T09:06:54.000Z,7782
2022-09-15T09:08:11.000Z,7682
2022-09-15T09:09:27.000Z,7520
2022-09-15T09:10:43.000Z,8381
2022-09-15T09:11:59.000Z,8387
2022-09-15T09:13:16.000Z,9196
2022-09-15T09:14:32.000Z,10206
2022-09-15T09:15:48.000Z,10738
2022-09-15T09:17:04.000Z,11211
2022-09-15T09:18:21.000Z,11148
2022-09-15T09:19:37.000Z,11203
2022-09-15T09:20:53.000Z,11230
2022-09-15T09:22:09.000Z,10750
2022-09-15T09:23:24.000Z,10058
2022-09-15T09:24:41.000Z,10428
2022-09-15T09:25:57.000Z,10053
2022-09-15T09:27:13.000Z,10160
2022-09-15T09:28:29.000Z,10472
2022-09-15T09:29:46.000Z,11619
2022-09-15T09:31:02.000Z,10653
2022-09-15T09:32:18.000Z,11461
2022-09-15T09:33:34.000Z,11580
2022-09-15T09:34:51.000Z,11507
2022-09-15T09:36:07.000Z,10957
2022-09-15T09:37:23.000Z,11479
2022-09-15T09:38:39.000Z,13302
2022-09-15T09:39:55.000Z,14001
2022-09-15T09:41:11.000Z,14994
2022-09-15T09:42:27.000Z,16357
2022-09-15T09:43:43.000Z,15637
2022-09-15T09:44:59.000Z,13203
2022-09-15T09:46:16.000Z,14304
2022-09-15T09:47:32.000Z,13407
2022-09-15T09:48:48.000Z,10804
2022-09-15T09:50:04.000Z,8032
2022-09-15T09:51:21.000Z,8597
2022-09-15T09:52:37.000Z,7375
2022-09-15T09:53:53.000Z,4924
2022-09-15T09:55:09.000Z,3642
2022-09-15T09:56:25.000Z,3284
2022-09-15T09:57:41.000Z,4896
2022-09-15T09:58:57.000Z,5289
2022-09-15T10:00:13.000Z,3558
2022-09-15T10:01:30.000Z,5318
2022-09-15T10:02:46.000Z,6587
2022-09-15T10:04:02.000Z,7611
2022-09-15T10:05:18.000Z,8397
2022-09-15T10:06:34.000Z,8643
2022-09-15T10:07:51.000Z,9246
2022-09-15T10:09:07.000Z,6826
2022-09-15T10:10:23.000Z,9908
2022-09-15T10:11:39.000Z,11336
2022-09-15T10:12:55.000Z,11286
2022-09-15T10:14:11.000Z,10496
2022-09-15T10:15:27.000Z,10617
2022-09-15T10:16:43.000Z,14299
2022-09-15T10:18:00.000Z,11945
2022-09-15T10:19:16.000Z,11520
2022-09-15T10:20:32.000Z,10712
2022-09-15T10:21:48.000Z,10210
2022-09-15T10:23:05.000Z,9897
2022-09-15T10:24:21.000Z,9022
2022-09-15T10:25:37.000Z,8975
2022-09-15T10:26:53.000Z,9009
2022-09-15T10:28:09.000Z,10474
2022-09-15T10:29:25.000Z,11760
2022-09-15T10:30:41.000Z,11526
2022-09-15T10:31:57.000Z,12176
2022-09-15T10:33:13.000Z,11820
2022-09-15T10:34:30.000Z,12424
2022-09-15T10:35:46.000Z,12435
2022-09-15T10:37:02.000Z,11811
2022-09-15T10:38:18.000Z,11620
2022-09-15T10:39:35.000Z,12368
2022-09-15T10:40:51.000Z,12631
2022-09-15T10:42:07.000Z,12548
2022-09-15T10:43:23.000Z,12516
2022-09-15T10:44:39.000Z,12966
2022-09-15T10:45:56.000Z,11863
2022-09-15T10:47:12.000Z,10710
2022-09-15T10:48:27.000Z,10708
2022-09-15T10:49:43.000Z,9346
2022-09-15T10:51:00.000Z,10272
2022-09-15T10:52:16.000Z,10302
2022-09-15T10:53:32.000Z,10509
2022-09-15T10:54:48.000Z,10720
2022-09-15T10:56:05.000Z,11637
2022-09-15T10:57:21.000Z,12333
2022-09-15T10:58:37.000Z,11317
2022-09-15T10:59:53.000Z,10077
2022-09-15T11:01:10.000Z,8685
2022-09-15T11:02:26.000Z,7801
2022-09-15T11:03:42.000Z,7396
2022-09-15T11:04:57.000Z,7755
2022-09-15T11:06:14.000Z,8363
2022-09-15T11:07:30.000Z,11003
2022-09-15T11:08:46.000Z,10172
2022-09-15T11:10:02.000Z,9130
2022-09-15T11:11:18.000Z,7640
2022-09-15T11:12:35.000Z,7931
2022-09-15T11:13:51.000Z,10458
2022-09-15T11:15:07.000Z,12575
2022-09-15T11:16:23.000Z,12056
2022-09-15T11:17:40.000Z,12955
2022-09-15T11:18:56.000Z,13930
2022-09-15T11:20:12.000Z,12534
2022-09-15T11:21:27.000Z,9922
2022-09-15T11:22:44.000Z,7950
2022-09-15T11:24:00.000Z,7464
2022-09-15T11:25:16.000Z,6828
2022-09-15T11:26:32.000Z,6589
2022-09-15T11:27:48.000Z,5211
2022-09-15T11:29:05.000Z,4293
2022-09-15T11:30:21.000Z,3396
2022-09-15T11:31:37.000Z,3737
2022-09-15T11:32:53.000Z,3017
2022-09-15T11:34:10.000Z,2334
2022-09-15T11:35:26.000Z,2223
2022-09-15T11:36:42.000Z,2170
2022-09-15T11:37:57.000Z,2254
2022-09-15T11:39:14.000Z,2186
2022-09-15T11:40:30.000Z,3698
2022-09-15T11:41:46.000Z,7766
2022-09-15T11:43:02.000Z,7333
2022-09-15T11:44:19.000Z,6786
2022-09-15T11:45:35.000Z,7191
2022-09-15T11:46:51.000Z,5843
2022-09-15T11:48:07.000Z,5313
2022-09-15T11:49:23.000Z,3824
2022-09-15T11:50:40.000Z,4896
2022-09-15T11:51:56.000Z,6233
2022-09-15T11:53:12.000Z,7711
2022-09-15T11:54:27.000Z,8611
2022-09-15T11:55:44.000Z,10140
2022-09-15T11:57:00.000Z,10306
2022-09-15T11:58:16.000Z,10256
2022-09-15T11:59:32.000Z,13076
2022-09-15T12:00:49.000Z,14586
2022-09-15T12:02:05.000Z,13074
2022-09-15T12:03:21.000Z,12979
2022-09-15T12:04:37.000Z,13125
2022-09-15T12:05:54.000Z,12886
2022-09-15T12:07:10.000Z,13328
2022-09-15T12:08:26.000Z,14164
2022-09-15T12:09:42.000Z,14813
2022-09-15T12:10:57.000Z,13403
2022-09-15T12:12:14.000Z,12960
2022-09-15T12:13:30.000Z,13052
2022-09-15T12:14:46.000Z,12815
2022-09-15T12:16:02.000Z,12362
2022-09-15T12:17:19.000Z,11580
2022-09-15T12:18:35.000Z,10634
2022-09-15T12:19:51.000Z,9145
2022-09-15T12:21:07.000Z,10331
2022-09-15T12:22:24.000Z,10973
2022-09-15T12:23:40.000Z,11009
2022-09-15T12:24:56.000Z,10145
2022-09-15T12:26:12.000Z,9891
2022-09-15T12:27:28.000Z,11456
2022-09-15T12:28:44.000Z,12106
2022-09-15T12:30:00.000Z,13124
2022-09-15T12:31:16.000Z,14145
2022-09-15T12:32:32.000Z,12476
2022-09-15T12:33:49.000Z,12222
2022-09-15T12:35:05.000Z,11307
2022-09-15T12:36:21.000Z,12183
2022-09-15T12:37:37.000Z,12165
2022-09-15T12:38:54.000Z,11790
2022-09-15T12:40:10.000Z,14391
2022-09-15T12:41:26.000Z,15847
2022-09-15T12:42:42.000Z,15902
2022-09-15T12:43:58.000Z,17041
2022-09-15T12:45:14.000Z,16023
2022-09-15T12:46:30.000Z,15589
2022-09-15T12:47:46.000Z,16097
2022-09-15T12:49:03.000Z,15669
2022-09-15T12:50:19.000Z,15915
2022-09-15T12:51:35.000Z,15917
2022-09-15T12:52:51.000Z,17099
2022-09-15T12:54:07.000Z,16493
2022-09-15T12:55:24.000Z,15175
2022-09-15T12:56:40.000Z,13931
2022-09-15T12:57:56.000Z,13826
2022-09-15T12:59:12.000Z,12890
2022-09-15T13:00:28.000Z,12623
2022-09-15T13:01:44.000Z,10054
2022-09-15T13:03:00.000Z,12420
2022-09-15T13:04:16.000Z,14033
2022-09-15T13:05:33.000Z,13430
2022-09-15T13:06:49.000Z,15175
2022-09-15T13:08:05.000Z,15938
2022-09-15T13:09:21.000Z,15268
2022-09-15T13:10:38.000Z,13061
2022-09-15T13:11:54.000Z,10861
2022-09-15T13:13:10.000Z,8616
2022-09-15T13:14:26.000Z,10696
2022-09-15T13:15:42.000Z,12035
2022-09-15T13:16:58.000Z,9794
2022-09-15T13:18:14.000Z,10675
2022-09-15T13:19:30.000Z,11799
2022-09-15T13:20:46.000Z,12208
2022-09-15T13:22:02.000Z,12138
2022-09-15T13:23:18.000Z,10808
2022-09-15T13:24:34.000Z,9255
2022-09-15T13:25:50.000Z,8927
2022-09-15T13:27:07.000Z,7938
2022-09-15T13:28:23.000Z,6619
2022-09-15T13:29:39.000Z,5911
2022-09-15T13:30:55.000Z,5969
2022-09-15T13:32:11.000Z,5783
2022-09-15T13:33:26.000Z,5145
2022-09-15T13:34:42.000Z,5105
2022-09-15T13:35:58.000Z,5594
2022-09-15T13:37:15.000Z,5635
2022-09-15T13:38:31.000Z,5627
2022-09-15T13:39:47.000Z,5670
2022-09-15T13:41:03.000Z,5317
2022-09-15T13:42:19.000Z,5272
2022-09-15T13:43:36.000Z,5743
2022-09-15T13:44:51.000Z,7407
2022-09-15T13:46:06.000Z,7969
2022-09-15T13:47:22.000Z,8237
2022-09-15T13:48:39.000Z,8667
2022-09-15T13:49:55.000Z,9232
2022-09-15T13:51:11.000Z,10082
2022-09-15T13:52:27.000Z,11652
2022-09-15T13:53:44.000Z,14362
2022-09-15T13:55:00.000Z,12160
2022-09-15T13:56:16.000Z,10238
2022-09-15T13:57:32.000Z,8916
2022-09-15T13:58:49.000Z,7545
2022-09-15T14:00:05.000Z,6952
2022-09-15T14:01:21.000Z,7120
2022-09-15T14:02:36.000Z,6459
2022-09-15T14:03:52.000Z,5936
2022-09-15T14:05:09.000Z,5318
2022-09-15T14:06:25.000Z,4838
2022-09-15T14:07:41.000Z,4160
2022-09-15T14:08:57.000Z,3630
2022-09-15T14:10:14.000Z,3638
2022-09-15T14:11:29.000Z,3053
2022-09-15T14:12:44.000Z,2301
2022-09-15T14:14:00.000Z,2273
2022-09-15T14:15:17.000Z,3218
2022-09-15T14:16:33.000Z,2882
2022-09-15T14:17:49.000Z,2490
2022-09-15T14:19:04.000Z,2459
2022-09-15T14:20:21.000Z,2351
2022-09-15T14:21:37.000Z,2094
2022-09-15T14:22:52.000Z,2038
2022-09-15T14:24:08.000Z,2348
2022-09-15T14:25:25.000Z,2821
2022-09-15T14:26:41.000Z,2887
2022-09-15T14:27:57.000Z,2711
2022-09-15T14:29:13.000Z,2991
2022-09-15T14:30:29.000Z,3712
2022-09-15T14:31:46.000Z,4292
2022-09-15T14:33:02.000Z,4647
2022-09-15T14:34:18.000Z,5236
2022-09-15T14:35:34.000Z,6170
2022-09-15T14:36:51.000Z,6367
2022-09-15T14:38:07.000Z,6391
2022-09-15T14:39:22.000Z,7180
2022-09-15T14:40:38.000Z,8610
2022-09-15T14:41:55.000Z,10122
2022-09-15T14:43:11.000Z,10073
2022-09-15T14:44:27.000Z,10671
2022-09-15T14:45:42.000Z,6006
2022-09-15T14:46:58.000Z,12405
2022-09-15T14:48:13.000Z,23651
2022-09-15T14:49:28.000Z,14886
2022-09-15T14:50:44.000Z,22020
2022-09-15T14:52:01.000Z,11032
2022-09-15T14:53:17.000Z,11279
2022-09-15T14:54:33.000Z,10092
2022-09-15T14:55:49.000Z,12241
2022-09-15T14:57:06.000Z,13305
2022-09-15T14:58:22.000Z,13825
2022-09-15T14:59:38.000Z,11401
2022-09-15T15:00:54.000Z,8273
2022-09-15T15:02:10.000Z,7388
2022-09-15T15:03:27.000Z,6652
2022-09-15T15:04:43.000Z,6828
2022-09-15T15:05:58.000Z,6735
2022-09-15T15:07:14.000Z,10753
2022-09-15T15:08:31.000Z,10206
2022-09-15T15:09:47.000Z,10797
2022-09-15T15:11:03.000Z,13613
2022-09-15T15:12:19.000Z,12010
2022-09-15T15:13:36.000Z,10334
2022-09-15T15:14:52.000Z,11146
2022-09-15T15:16:08.000Z,12247
2022-09-15T15:17:24.000Z,11006
2022-09-15T15:18:40.000Z,8750
2022-09-15T15:19:57.000Z,6556
2022-09-15T15:21:13.000Z,5240
2022-09-15T15:22:28.000Z,4128
2022-09-15T15:23:44.000Z,3049
2022-09-15T15:25:01.000Z,2303
2022-09-15T15:26:17.000Z,2411
2022-09-15T15:27:33.000Z,2270
2022-09-15T15:28:49.000Z,2145
2022-09-15T15:30:06.000Z,1901
2022-09-15T15:31:22.000Z,2233
2022-09-15T15:32:38.000Z,2329
2022-09-15T15:33:54.000Z,3018
2022-09-15T15:35:11.000Z,3312
2022-09-15T15:36:27.000Z,4577
2022-09-15T15:37:43.000Z,4781
2022-09-15T15:38:58.000Z,4061
2022-09-15T15:40:14.000Z,4354
2022-09-15T15:41:31.000Z,5135
2022-09-15T15:42:47.000Z,4194
2022-09-15T15:44:03.000Z,5128
2022-09-15T15:45:19.000Z,7076
2022-09-15T15:46:36.000Z,7715
2022-09-15T15:47:52.000Z,8330
2022-09-15T15:49:08.000Z,7813
2022-09-15T15:50:24.000Z,10628
2022-09-15T15:51:41.000Z,8602
2022-09-15T15:52:57.000Z,9309
2022-09-15T15:54:13.000Z,8998
2022-09-15T15:55:28.000Z,9765
2022-09-15T15:56:45.000Z,9578
2022-09-15T15:58:01.000Z,8002
2022-09-15T15:59:17.000Z,6710
2022-09-15T16:00:33.000Z,10142
2022-09-15T16:01:49.000Z,9762
2022-09-15T16:03:06.000Z,8852
2022-09-15T16:04:22.000Z,7051
2022-09-15T16:05:38.000Z,6242
2022-09-15T16:06:54.000Z,7061
2022-09-15T16:08:11.000Z,7986
2022-09-15T16:09:27.000Z,5261
2022-09-15T16:10:43.000Z,6374
2022-09-15T16:11:59.000Z,5871
2022-09-15T16:13:15.000Z,1987
2022-09-15T16:14:31.000Z,11781
2022-09-15T16:15:47.000Z,4275
2022-09-15T16:17:03.000Z,9594
2022-09-15T16:18:20.000Z,7833
2022-09-15T16:19:36.000Z,6007
2022-09-15T16:20:52.000Z,5250
2022-09-15T16:22:08.000Z,3328
2022-09-15T16:23:24.000Z,6702
2022-09-15T16:24:41.000Z,2260
2022-09-15T16:25:57.000Z,6866
2022-09-15T16:27:13.000Z,7312
2022-09-15T16:28:29.000Z,7038
2022-09-15T16:29:45.000Z,7273
2022-09-15T16:31:01.000Z,8391
2022-09-15T16:32:17.000Z,3703
2022-09-15T16:33:33.000Z,6739
2022-09-15T16:34:50.000Z,8049
2022-09-15T16:36:06.000Z,7362
2022-09-15T16:37:22.000Z,7084
2022-09-15T16:38:38.000Z,7165
2022-09-15T16:39:55.000Z,6413
2022-09-15T16:41:11.000Z,5508
2022-09-15T16:42:27.000Z,6147
2022-09-15T16:43:43.000Z,7226
2022-09-15T16:44:59.000Z,6083
2022-09-15T16:46:15.000Z,5851
2022-09-15T16:47:31.000Z,5588
2022-09-15T16:48:47.000Z,5822
2022-09-15T16:50:03.000Z,2694
2022-09-15T16:51:20.000Z,5542
2022-09-15T16:52:36.000Z,4593
2022-09-15T16:53:52.000Z,3461
2022-09-15T16:55:08.000Z,3452
2022-09-15T16:56:25.000Z,3247
2022-09-15T16:57:41.000Z,2935
2022-09-15T16:58:57.000Z,2538